sensor_id;sensor_type;location;lat;lon;timestamp;temperature;humidity
54264;DHT22;40178;53.042;6.406;2023-12-28T00:02:17;8.80;99.90
54264;DHT22;40178;53.042;6.406;2023-12-28T00:04:42;8.80;99.90
54264;DHT22;40178;53.042;6.406;2023-12-28T00:07:08;8.90;99.90
54264;DHT22;40178;53.042;6.406;2023-12-28T00:09:33;8.80;99.90
54264;DHT22;40178;53.042;6.406;2023-12-28T00:11:59;8.80;99.90
54264;DHT22;40178;53.042;6.406;2023-12-28T00:14:25;8.90;99.90
54264;DHT22;40178;53.042;6.406;2023-12-28T00:16:50;8.90;99.90
54264;DHT22;40178;53.042;6.406;2023-12-28T00:19:16;8.90;99.90
54264;DHT22;40178;53.042;6.406;2023-12-28T00:21:41;9.00;99.90
54264;DHT22;40178;53.042;6.406;2023-12-28T00:24:07;9.00;99.90
54264;DHT22;40178;53.042;6.406;2023-12-28T00:26:32;9.00;99.90
54264;DHT22;40178;53.042;6.406;2023-12-28T00:28:58;9.00;99.90
54264;DHT22;40178;53.042;6.406;2023-12-28T00:31:24;9.10;99.90
54264;DHT22;40178;53.042;6.406;2023-12-28T00:33:49;9.10;99.90
54264;DHT22;40178;53.042;6.406;2023-12-28T00:36:15;9.10;99.90
54264;DHT22;40178;53.042;6.406;2023-12-28T00:38:42;9.20;99.90
54264;DHT22;40178;53.042;6.406;2023-12-28T00:41:07;9.10;99.90
54264;DHT22;40178;53.042;6.406;2023-12-28T00:43:33;9.10;99.90
54264;DHT22;40178;53.042;6.406;2023-12-28T00:45:59;9.20;99.90
54264;DHT22;40178;53.042;6.406;2023-12-28T00:48:25;9.10;99.90
54264;DHT22;40178;53.042;6.406;2023-12-28T00:50:50;9.20;99.90
54264;DHT22;40178;53.042;6.406;2023-12-28T00:53:16;9.20;99.90
54264;DHT22;40178;53.042;6.406;2023-12-28T00:55:41;9.20;99.90
54264;DHT22;40178;53.042;6.406;2023-12-28T00:58:07;9.20;99.90
54264;DHT22;40178;53.042;6.406;2023-12-28T01:00:33;9.20;99.90
54264;DHT22;40178;53.042;6.406;2023-12-28T01:02:58;9.10;99.90
54264;DHT22;40178;53.042;6.406;2023-12-28T01:05:24;9.10;99.90
54264;DHT22;40178;53.042;6.406;2023-12-28T01:07:51;9.00;99.90
54264;DHT22;40178;53.042;6.406;2023-12-28T01:10:17;9.00;99.90
54264;DHT22;40178;53.042;6.406;2023-12-28T01:12:43;9.00;99.90
54264;DHT22;40178;53.042;6.406;2023-12-28T01:15:09;8.90;99.90
54264;DHT22;40178;53.042;6.406;2023-12-28T01:17:34;8.90;99.90
54264;DHT22;40178;53.042;6.406;2023-12-28T01:20:00;8.90;99.90
54264;DHT22;40178;53.042;6.406;2023-12-28T01:22:26;8.80;99.90
54264;DHT22;40178;53.042;6.406;2023-12-28T01:24:51;8.80;99.90
54264;DHT22;40178;53.042;6.406;2023-12-28T01:27:17;8.80;99.90
54264;DHT22;40178;53.042;6.406;2023-12-28T01:29:43;8.80;99.90
54264;DHT22;40178;53.042;6.406;2023-12-28T01:32:09;8.80;99.90
54264;DHT22;40178;53.042;6.406;2023-12-28T01:34:34;9.10;99.90
54264;DHT22;40178;53.042;6.406;2023-12-28T01:37:00;8.90;99.90
54264;DHT22;40178;53.042;6.406;2023-12-28T01:39:25;8.90;99.90
54264;DHT22;40178;53.042;6.406;2023-12-28T01:41:51;8.90;99.90
54264;DHT22;40178;53.042;6.406;2023-12-28T01:44:17;8.90;99.90
54264;DHT22;40178;53.042;6.406;2023-12-28T01:46:42;8.80;99.90
54264;DHT22;40178;53.042;6.406;2023-12-28T01:49:08;8.70;99.90
54264;DHT22;40178;53.042;6.406;2023-12-28T01:51:34;8.70;99.90
54264;DHT22;40178;53.042;6.406;2023-12-28T01:54:01;8.70;99.90
54264;DHT22;40178;53.042;6.406;2023-12-28T01:56:27;8.70;99.90
54264;DHT22;40178;53.042;6.406;2023-12-28T01:58:53;8.70;99.90
54264;DHT22;40178;53.042;6.406;2023-12-28T02:01:19;8.70;99.90
54264;DHT22;40178;53.042;6.406;2023-12-28T02:03:45;8.70;99.90
54264;DHT22;40178;53.042;6.406;2023-12-28T02:06:13;8.70;99.90
54264;DHT22;40178;53.042;6.406;2023-12-28T02:08:41;8.60;99.90
54264;DHT22;40178;53.042;6.406;2023-12-28T02:11:07;8.60;99.90
54264;DHT22;40178;53.042;6.406;2023-12-28T02:13:33;8.70;99.90
54264;DHT22;40178;53.042;6.406;2023-12-28T02:16:08;8.70;99.90
54264;DHT22;40178;53.042;6.406;2023-12-28T02:18:43;8.60;99.90
54264;DHT22;40178;53.042;6.406;2023-12-28T02:21:12;8.60;99.90
54264;DHT22;40178;53.042;6.406;2023-12-28T02:23:38;8.70;99.90
54264;DHT22;40178;53.042;6.406;2023-12-28T02:26:03;8.70;99.90
54264;DHT22;40178;53.042;6.406;2023-12-28T02:28:29;8.70;99.90
54264;DHT22;40178;53.042;6.406;2023-12-28T02:30:54;8.70;99.90
54264;DHT22;40178;53.042;6.406;2023-12-28T02:33:29;8.70;99.90
54264;DHT22;40178;53.042;6.406;2023-12-28T02:36:02;8.80;99.90
54264;DHT22;40178;53.042;6.406;2023-12-28T02:38:30;8.80;99.90
54264;DHT22;40178;53.042;6.406;2023-12-28T02:40:57;8.80;99.90
54264;DHT22;40178;53.042;6.406;2023-12-28T02:43:24;8.90;99.90
54264;DHT22;40178;53.042;6.406;2023-12-28T02:45:49;9.00;99.90
54264;DHT22;40178;53.042;6.406;2023-12-28T02:48:15;8.90;99.90
54264;DHT22;40178;53.042;6.406;2023-12-28T02:50:40;9.00;99.90
54264;DHT22;40178;53.042;6.406;2023-12-28T02:53:06;9.00;99.90
54264;DHT22;40178;53.042;6.406;2023-12-28T02:55:32;9.10;99.90
54264;DHT22;40178;53.042;6.406;2023-12-28T02:57:57;9.10;99.90
54264;DHT22;40178;53.042;6.406;2023-12-28T03:00:27;9.10;99.90
54264;DHT22;40178;53.042;6.406;2023-12-28T03:02:52;9.20;99.90
54264;DHT22;40178;53.042;6.406;2023-12-28T03:05:18;9.30;99.90
54264;DHT22;40178;53.042;6.406;2023-12-28T03:07:44;9.30;99.90
54264;DHT22;40178;53.042;6.406;2023-12-28T03:10:10;9.40;99.90
54264;DHT22;40178;53.042;6.406;2023-12-28T03:12:38;9.40;99.90
54264;DHT22;40178;53.042;6.406;2023-12-28T03:15:05;9.40;99.90
54264;DHT22;40178;53.042;6.406;2023-12-28T03:17:31;9.50;99.90
54264;DHT22;40178;53.042;6.406;2023-12-28T03:20:01;9.50;99.90
54264;DHT22;40178;53.042;6.406;2023-12-28T03:22:26;9.50;99.90
54264;DHT22;40178;53.042;6.406;2023-12-28T03:24:52;9.50;99.90
54264;DHT22;40178;53.042;6.406;2023-12-28T03:27:18;9.60;99.90
54264;DHT22;40178;53.042;6.406;2023-12-28T03:29:43;9.60;99.90
54264;DHT22;40178;53.042;6.406;2023-12-28T03:32:09;9.50;99.90
54264;DHT22;40178;53.042;6.406;2023-12-28T03:34:35;9.60;99.90
54264;DHT22;40178;53.042;6.406;2023-12-28T03:37:01;9.60;99.90
54264;DHT22;40178;53.042;6.406;2023-12-28T03:39:27;9.60;99.90
54264;DHT22;40178;53.042;6.406;2023-12-28T03:41:53;9.60;99.90
54264;DHT22;40178;53.042;6.406;2023-12-28T03:44:22;9.60;99.90
54264;DHT22;40178;53.042;6.406;2023-12-28T03:46:48;9.70;99.90
54264;DHT22;40178;53.042;6.406;2023-12-28T03:49:18;9.70;99.90
54264;DHT22;40178;53.042;6.406;2023-12-28T03:51:44;9.70;99.90
54264;DHT22;40178;53.042;6.406;2023-12-28T03:54:10;9.70;99.90
54264;DHT22;40178;53.042;6.406;2023-12-28T03:56:35;9.70;99.90
54264;DHT22;40178;53.042;6.406;2023-12-28T03:59:02;9.70;99.90
54264;DHT22;40178;53.042;6.406;2023-12-28T04:01:28;9.80;99.90
54264;DHT22;40178;53.042;6.406;2023-12-28T04:03:53;9.70;99.90
54264;DHT22;40178;53.042;6.406;2023-12-28T04:06:19;9.70;99.90
54264;DHT22;40178;53.042;6.406;2023-12-28T04:08:45;10.60;99.90
54264;DHT22;40178;53.042;6.406;2023-12-28T04:11:10;9.80;99.90
54264;DHT22;40178;53.042;6.406;2023-12-28T04:13:36;9.80;99.90
54264;DHT22;40178;53.042;6.406;2023-12-28T04:16:03;9.80;99.90
54264;DHT22;40178;53.042;6.406;2023-12-28T04:18:29;9.80;99.90
54264;DHT22;40178;53.042;6.406;2023-12-28T04:20:55;9.80;99.90
54264;DHT22;40178;53.042;6.406;2023-12-28T04:23:21;9.90;99.90
54264;DHT22;40178;53.042;6.406;2023-12-28T04:25:46;9.80;99.90
54264;DHT22;40178;53.042;6.406;2023-12-28T04:28:12;9.90;99.90
54264;DHT22;40178;53.042;6.406;2023-12-28T04:30:37;9.90;99.90
54264;DHT22;40178;53.042;6.406;2023-12-28T04:33:03;10.00;99.90
54264;DHT22;40178;53.042;6.406;2023-12-28T04:35:29;10.00;99.90
54264;DHT22;40178;53.042;6.406;2023-12-28T04:37:55;10.00;99.90
54264;DHT22;40178;53.042;6.406;2023-12-28T04:40:20;10.00;99.90
54264;DHT22;40178;53.042;6.406;2023-12-28T04:42:46;10.00;99.90
54264;DHT22;40178;53.042;6.406;2023-12-28T04:45:12;10.00;99.90
54264;DHT22;40178;53.042;6.406;2023-12-28T04:47:38;10.10;99.90
54264;DHT22;40178;53.042;6.406;2023-12-28T04:50:04;10.00;99.90
54264;DHT22;40178;53.042;6.406;2023-12-28T04:52:30;10.10;99.90
54264;DHT22;40178;53.042;6.406;2023-12-28T04:54:56;10.10;99.90
54264;DHT22;40178;53.042;6.406;2023-12-28T04:57:21;10.00;99.90
54264;DHT22;40178;53.042;6.406;2023-12-28T04:59:50;10.10;99.90
54264;DHT22;40178;53.042;6.406;2023-12-28T05:02:16;10.00;99.90
54264;DHT22;40178;53.042;6.406;2023-12-28T05:04:41;10.10;99.90
54264;DHT22;40178;53.042;6.406;2023-12-28T05:07:07;10.10;99.90
54264;DHT22;40178;53.042;6.406;2023-12-28T05:09:33;10.10;99.90
54264;DHT22;40178;53.042;6.406;2023-12-28T05:11:58;10.10;99.90
54264;DHT22;40178;53.042;6.406;2023-12-28T05:14:24;10.00;99.90
54264;DHT22;40178;53.042;6.406;2023-12-28T05:16:50;10.00;99.90
54264;DHT22;40178;53.042;6.406;2023-12-28T05:19:15;10.10;99.90
54264;DHT22;40178;53.042;6.406;2023-12-28T05:21:41;10.10;99.90
54264;DHT22;40178;53.042;6.406;2023-12-28T05:24:06;10.10;99.90
54264;DHT22;40178;53.042;6.406;2023-12-28T05:26:32;10.10;99.90
54264;DHT22;40178;53.042;6.406;2023-12-28T05:28:58;10.10;99.90
54264;DHT22;40178;53.042;6.406;2023-12-28T05:31:24;10.20;99.90
54264;DHT22;40178;53.042;6.406;2023-12-28T05:33:50;10.20;99.90
54264;DHT22;40178;53.042;6.406;2023-12-28T05:36:15;10.10;99.90
54264;DHT22;40178;53.042;6.406;2023-12-28T05:38:41;10.10;99.90
54264;DHT22;40178;53.042;6.406;2023-12-28T05:41:07;10.10;99.90
54264;DHT22;40178;53.042;6.406;2023-12-28T05:43:34;10.10;99.90
54264;DHT22;40178;53.042;6.406;2023-12-28T05:46:00;10.10;99.90
54264;DHT22;40178;53.042;6.406;2023-12-28T05:48:26;10.10;99.90
54264;DHT22;40178;53.042;6.406;2023-12-28T05:50:51;10.10;99.90
54264;DHT22;40178;53.042;6.406;2023-12-28T05:53:17;10.10;99.90
54264;DHT22;40178;53.042;6.406;2023-12-28T05:55:43;10.10;99.90
54264;DHT22;40178;53.042;6.406;2023-12-28T05:58:09;10.10;99.90
54264;DHT22;40178;53.042;6.406;2023-12-28T06:00:35;10.10;99.90
54264;DHT22;40178;53.042;6.406;2023-12-28T06:03:08;10.10;99.90
54264;DHT22;40178;53.042;6.406;2023-12-28T06:05:34;10.10;99.90
54264;DHT22;40178;53.042;6.406;2023-12-28T06:07:59;10.10;99.90
54264;DHT22;40178;53.042;6.406;2023-12-28T06:10:25;10.10;99.90
54264;DHT22;40178;53.042;6.406;2023-12-28T06:12:50;10.20;99.90
54264;DHT22;40178;53.042;6.406;2023-12-28T06:15:16;10.20;99.90
54264;DHT22;40178;53.042;6.406;2023-12-28T06:17:42;10.20;99.90
54264;DHT22;40178;53.042;6.406;2023-12-28T06:20:08;10.20;99.90
54264;DHT22;40178;53.042;6.406;2023-12-28T06:22:37;10.20;99.90
54264;DHT22;40178;53.042;6.406;2023-12-28T06:25:03;10.20;99.90
54264;DHT22;40178;53.042;6.406;2023-12-28T06:27:29;10.20;99.90
54264;DHT22;40178;53.042;6.406;2023-12-28T06:29:55;10.20;99.90
54264;DHT22;40178;53.042;6.406;2023-12-28T06:32:20;10.20;99.90
54264;DHT22;40178;53.042;6.406;2023-12-28T06:34:46;10.30;99.90
54264;DHT22;40178;53.042;6.406;2023-12-28T06:37:12;10.20;99.90
54264;DHT22;40178;53.042;6.406;2023-12-28T06:39:39;10.20;99.90
54264;DHT22;40178;53.042;6.406;2023-12-28T06:42:04;10.20;99.90
54264;DHT22;40178;53.042;6.406;2023-12-28T06:44:30;10.20;99.90
54264;DHT22;40178;53.042;6.406;2023-12-28T06:46:55;10.20;99.90
54264;DHT22;40178;53.042;6.406;2023-12-28T06:49:21;10.20;99.90
54264;DHT22;40178;53.042;6.406;2023-12-28T06:51:47;10.20;99.90
54264;DHT22;40178;53.042;6.406;2023-12-28T06:54:13;10.20;99.90
54264;DHT22;40178;53.042;6.406;2023-12-28T06:56:40;10.30;99.90
54264;DHT22;40178;53.042;6.406;2023-12-28T06:59:06;10.30;99.90
54264;DHT22;40178;53.042;6.406;2023-12-28T07:01:31;10.30;99.90
54264;DHT22;40178;53.042;6.406;2023-12-28T07:03:57;10.30;99.90
54264;DHT22;40178;53.042;6.406;2023-12-28T07:06:25;10.40;99.90
54264;DHT22;40178;53.042;6.406;2023-12-28T07:08:50;10.30;99.90
54264;DHT22;40178;53.042;6.406;2023-12-28T07:11:16;10.30;99.90
54264;DHT22;40178;53.042;6.406;2023-12-28T07:13:42;10.50;99.90
54264;DHT22;40178;53.042;6.406;2023-12-28T07:16:07;10.30;99.90
54264;DHT22;40178;53.042;6.406;2023-12-28T07:18:33;10.30;99.90
54264;DHT22;40178;53.042;6.406;2023-12-28T07:20:59;10.30;99.90
54264;DHT22;40178;53.042;6.406;2023-12-28T07:23:26;10.20;99.90
54264;DHT22;40178;53.042;6.406;2023-12-28T07:25:52;10.20;99.90
54264;DHT22;40178;53.042;6.406;2023-12-28T07:28:18;10.20;99.90
54264;DHT22;40178;53.042;6.406;2023-12-28T07:30:44;10.20;99.90
54264;DHT22;40178;53.042;6.406;2023-12-28T07:33:09;10.10;99.90
54264;DHT22;40178;53.042;6.406;2023-12-28T07:35:35;10.10;99.90
54264;DHT22;40178;53.042;6.406;2023-12-28T07:38:01;10.10;99.90
54264;DHT22;40178;53.042;6.406;2023-12-28T07:40:27;10.10;99.90
54264;DHT22;40178;53.042;6.406;2023-12-28T07:42:53;10.10;99.90
54264;DHT22;40178;53.042;6.406;2023-12-28T07:45:18;10.10;99.90
54264;DHT22;40178;53.042;6.406;2023-12-28T07:47:52;10.10;99.90
54264;DHT22;40178;53.042;6.406;2023-12-28T07:50:18;10.20;99.90
54264;DHT22;40178;53.042;6.406;2023-12-28T07:52:44;10.20;99.90
54264;DHT22;40178;53.042;6.406;2023-12-28T07:55:10;10.20;99.90
54264;DHT22;40178;53.042;6.406;2023-12-28T07:57:35;10.20;99.90
54264;DHT22;40178;53.042;6.406;2023-12-28T08:00:02;10.30;99.90
54264;DHT22;40178;53.042;6.406;2023-12-28T08:02:29;10.30;99.90
54264;DHT22;40178;53.042;6.406;2023-12-28T08:04:54;10.30;99.90
54264;DHT22;40178;53.042;6.406;2023-12-28T08:07:20;10.30;99.90
54264;DHT22;40178;53.042;6.406;2023-12-28T08:09:46;10.30;99.90
54264;DHT22;40178;53.042;6.406;2023-12-28T08:12:11;10.30;99.90
54264;DHT22;40178;53.042;6.406;2023-12-28T08:14:37;10.30;99.90
54264;DHT22;40178;53.042;6.406;2023-12-28T08:17:02;10.40;99.90
54264;DHT22;40178;53.042;6.406;2023-12-28T08:19:28;10.40;99.90
54264;DHT22;40178;53.042;6.406;2023-12-28T08:21:54;10.40;99.90
54264;DHT22;40178;53.042;6.406;2023-12-28T08:24:19;10.40;99.90
54264;DHT22;40178;53.042;6.406;2023-12-28T08:26:45;10.50;99.90
54264;DHT22;40178;53.042;6.406;2023-12-28T08:29:11;10.50;99.90
54264;DHT22;40178;53.042;6.406;2023-12-28T08:31:37;10.40;99.90
54264;DHT22;40178;53.042;6.406;2023-12-28T08:34:02;10.50;99.90
54264;DHT22;40178;53.042;6.406;2023-12-28T08:36:28;10.40;99.90
54264;DHT22;40178;53.042;6.406;2023-12-28T08:38:54;10.40;99.90
54264;DHT22;40178;53.042;6.406;2023-12-28T08:41:20;10.40;99.90
54264;DHT22;40178;53.042;6.406;2023-12-28T08:43:47;10.40;99.90
54264;DHT22;40178;53.042;6.406;2023-12-28T08:46:13;10.50;99.90
54264;DHT22;40178;53.042;6.406;2023-12-28T08:48:40;10.50;99.90
54264;DHT22;40178;53.042;6.406;2023-12-28T08:51:08;10.40;99.90
54264;DHT22;40178;53.042;6.406;2023-12-28T08:53:45;10.10;99.90
54264;DHT22;40178;53.042;6.406;2023-12-28T08:59:09;10.50;99.90
54264;DHT22;40178;53.042;6.406;2023-12-28T09:01:38;10.50;99.90
54264;DHT22;40178;53.042;6.406;2023-12-28T09:04:03;10.40;99.90
54264;DHT22;40178;53.042;6.406;2023-12-28T09:06:29;10.50;99.90
54264;DHT22;40178;53.042;6.406;2023-12-28T09:08:55;10.50;99.90
54264;DHT22;40178;53.042;6.406;2023-12-28T09:11:20;10.50;99.90
54264;DHT22;40178;53.042;6.406;2023-12-28T09:13:46;10.40;99.90
54264;DHT22;40178;53.042;6.406;2023-12-28T09:16:14;10.40;99.90
54264;DHT22;40178;53.042;6.406;2023-12-28T09:18:40;10.50;99.90
54264;DHT22;40178;53.042;6.406;2023-12-28T09:21:07;10.50;99.90
54264;DHT22;40178;53.042;6.406;2023-12-28T09:23:34;10.50;99.90
54264;DHT22;40178;53.042;6.406;2023-12-28T09:26:04;10.50;99.90
54264;DHT22;40178;53.042;6.406;2023-12-28T09:28:30;10.50;99.90
54264;DHT22;40178;53.042;6.406;2023-12-28T09:30:56;10.30;99.90
54264;DHT22;40178;53.042;6.406;2023-12-28T09:33:22;10.20;99.90
54264;DHT22;40178;53.042;6.406;2023-12-28T09:35:47;10.10;99.90
54264;DHT22;40178;53.042;6.406;2023-12-28T09:38:14;10.20;99.90
54264;DHT22;40178;53.042;6.406;2023-12-28T09:40:53;10.10;99.90
54264;DHT22;40178;53.042;6.406;2023-12-28T09:43:23;10.20;99.90
54264;DHT22;40178;53.042;6.406;2023-12-28T09:45:54;10.30;99.90
54264;DHT22;40178;53.042;6.406;2023-12-28T09:48:21;10.30;99.90
54264;DHT22;40178;53.042;6.406;2023-12-28T09:50:54;10.40;99.90
54264;DHT22;40178;53.042;6.406;2023-12-28T09:53:25;10.30;99.90
54264;DHT22;40178;53.042;6.406;2023-12-28T09:56:00;10.40;99.90
54264;DHT22;40178;53.042;6.406;2023-12-28T09:58:28;10.40;99.90
54264;DHT22;40178;53.042;6.406;2023-12-28T10:00:56;10.40;99.90
54264;DHT22;40178;53.042;6.406;2023-12-28T10:03:22;10.50;99.90
54264;DHT22;40178;53.042;6.406;2023-12-28T10:05:51;10.50;99.90
54264;DHT22;40178;53.042;6.406;2023-12-28T10:08:19;10.50;99.90
54264;DHT22;40178;53.042;6.406;2023-12-28T10:10:50;10.60;99.90
54264;DHT22;40178;53.042;6.406;2023-12-28T10:13:19;10.60;99.90
54264;DHT22;40178;53.042;6.406;2023-12-28T10:15:45;10.60;99.90
54264;DHT22;40178;53.042;6.406;2023-12-28T10:18:11;10.60;99.90
54264;DHT22;40178;53.042;6.406;2023-12-28T10:20:38;10.70;99.90
54264;DHT22;40178;53.042;6.406;2023-12-28T10:23:04;10.70;99.90
54264;DHT22;40178;53.042;6.406;2023-12-28T10:25:32;10.70;99.90
54264;DHT22;40178;53.042;6.406;2023-12-28T10:27:57;10.70;99.90
54264;DHT22;40178;53.042;6.406;2023-12-28T10:30:24;10.70;99.90
54264;DHT22;40178;53.042;6.406;2023-12-28T10:32:50;10.80;99.90
54264;DHT22;40178;53.042;6.406;2023-12-28T10:35:15;10.90;99.90
54264;DHT22;40178;53.042;6.406;2023-12-28T10:37:42;10.80;99.90
54264;DHT22;40178;53.042;6.406;2023-12-28T10:40:14;10.80;99.90
54264;DHT22;40178;53.042;6.406;2023-12-28T10:43:15;10.90;99.90
54264;DHT22;40178;53.042;6.406;2023-12-28T10:45:42;10.80;99.90
54264;DHT22;40178;53.042;6.406;2023-12-28T10:48:12;10.80;99.90
54264;DHT22;40178;53.042;6.406;2023-12-28T10:50:41;10.80;99.90
54264;DHT22;40178;53.042;6.406;2023-12-28T10:53:49;10.80;99.90
54264;DHT22;40178;53.042;6.406;2023-12-28T10:59:14;10.80;99.90
54264;DHT22;40178;53.042;6.406;2023-12-28T11:01:43;10.80;99.90
54264;DHT22;40178;53.042;6.406;2023-12-28T11:04:31;10.80;99.90
54264;DHT22;40178;53.042;6.406;2023-12-28T11:07:01;10.80;99.90
54264;DHT22;40178;53.042;6.406;2023-12-28T11:09:30;10.80;99.90
54264;DHT22;40178;53.042;6.406;2023-12-28T11:11:57;10.80;99.90
54264;DHT22;40178;53.042;6.406;2023-12-28T11:14:27;10.80;99.90
54264;DHT22;40178;53.042;6.406;2023-12-28T11:16:53;10.80;99.90
54264;DHT22;40178;53.042;6.406;2023-12-28T11:19:21;10.80;99.90
54264;DHT22;40178;53.042;6.406;2023-12-28T11:21:48;10.80;99.90
54264;DHT22;40178;53.042;6.406;2023-12-28T11:24:15;10.80;99.90
54264;DHT22;40178;53.042;6.406;2023-12-28T11:26:42;10.80;99.90
54264;DHT22;40178;53.042;6.406;2023-12-28T11:29:08;10.70;99.90
54264;DHT22;40178;53.042;6.406;2023-12-28T11:31:34;10.50;99.90
54264;DHT22;40178;53.042;6.406;2023-12-28T11:34:00;10.40;99.90
54264;DHT22;40178;53.042;6.406;2023-12-28T11:36:34;10.40;99.90
54264;DHT22;40178;53.042;6.406;2023-12-28T11:39:04;10.40;99.90
54264;DHT22;40178;53.042;6.406;2023-12-28T11:41:35;10.50;99.90
54264;DHT22;40178;53.042;6.406;2023-12-28T11:44:05;10.60;99.90
54264;DHT22;40178;53.042;6.406;2023-12-28T11:46:31;10.60;99.90
54264;DHT22;40178;53.042;6.406;2023-12-28T11:49:07;10.70;99.90
54264;DHT22;40178;53.042;6.406;2023-12-28T11:51:36;10.80;99.90
54264;DHT22;40178;53.042;6.406;2023-12-28T11:54:03;10.80;99.90
54264;DHT22;40178;53.042;6.406;2023-12-28T11:56:32;10.80;99.90
54264;DHT22;40178;53.042;6.406;2023-12-28T11:58:59;10.80;99.90
54264;DHT22;40178;53.042;6.406;2023-12-28T12:01:25;10.80;99.90
54264;DHT22;40178;53.042;6.406;2023-12-28T12:03:50;10.80;99.90
54264;DHT22;40178;53.042;6.406;2023-12-28T12:06:16;10.80;99.90
54264;DHT22;40178;53.042;6.406;2023-12-28T12:08:45;10.90;99.90
54264;DHT22;40178;53.042;6.406;2023-12-28T12:11:12;10.90;99.90
54264;DHT22;40178;53.042;6.406;2023-12-28T12:13:38;10.90;99.90
54264;DHT22;40178;53.042;6.406;2023-12-28T12:16:04;10.90;99.90
54264;DHT22;40178;53.042;6.406;2023-12-28T12:18:32;10.80;99.90
54264;DHT22;40178;53.042;6.406;2023-12-28T12:20:58;10.90;99.90
54264;DHT22;40178;53.042;6.406;2023-12-28T12:23:24;10.90;99.90
54264;DHT22;40178;53.042;6.406;2023-12-28T12:25:51;10.80;99.90
54264;DHT22;40178;53.042;6.406;2023-12-28T12:28:16;10.90;99.90
54264;DHT22;40178;53.042;6.406;2023-12-28T12:30:53;10.90;99.90
54264;DHT22;40178;53.042;6.406;2023-12-28T12:33:20;10.90;99.90
54264;DHT22;40178;53.042;6.406;2023-12-28T12:35:46;10.90;99.90
54264;DHT22;40178;53.042;6.406;2023-12-28T12:38:11;10.90;99.90
54264;DHT22;40178;53.042;6.406;2023-12-28T12:40:37;10.90;99.90
54264;DHT22;40178;53.042;6.406;2023-12-28T12:43:03;10.80;99.90
54264;DHT22;40178;53.042;6.406;2023-12-28T12:45:29;10.80;99.90
54264;DHT22;40178;53.042;6.406;2023-12-28T12:47:54;10.90;99.90
54264;DHT22;40178;53.042;6.406;2023-12-28T12:50:20;10.80;99.90
54264;DHT22;40178;53.042;6.406;2023-12-28T12:52:47;10.80;99.90
54264;DHT22;40178;53.042;6.406;2023-12-28T12:55:13;10.80;99.90
54264;DHT22;40178;53.042;6.406;2023-12-28T12:57:40;10.80;99.90
54264;DHT22;40178;53.042;6.406;2023-12-28T13:00:06;10.80;99.90
54264;DHT22;40178;53.042;6.406;2023-12-28T13:02:35;10.80;99.90
54264;DHT22;40178;53.042;6.406;2023-12-28T13:05:04;10.80;99.90
54264;DHT22;40178;53.042;6.406;2023-12-28T13:07:31;10.80;99.90
54264;DHT22;40178;53.042;6.406;2023-12-28T13:09:57;10.80;99.90
54264;DHT22;40178;53.042;6.406;2023-12-28T13:12:23;10.80;99.90
54264;DHT22;40178;53.042;6.406;2023-12-28T13:14:49;10.80;99.90
54264;DHT22;40178;53.042;6.406;2023-12-28T13:17:15;10.80;99.90
54264;DHT22;40178;53.042;6.406;2023-12-28T13:19:42;10.80;99.90
54264;DHT22;40178;53.042;6.406;2023-12-28T13:22:07;10.80;99.90
54264;DHT22;40178;53.042;6.406;2023-12-28T13:24:33;10.80;99.90
54264;DHT22;40178;53.042;6.406;2023-12-28T13:26:59;10.80;99.90
54264;DHT22;40178;53.042;6.406;2023-12-28T13:29:26;10.80;99.90
54264;DHT22;40178;53.042;6.406;2023-12-28T13:31:51;10.80;99.90
54264;DHT22;40178;53.042;6.406;2023-12-28T13:34:17;10.80;99.90
54264;DHT22;40178;53.042;6.406;2023-12-28T13:36:44;10.80;99.90
54264;DHT22;40178;53.042;6.406;2023-12-28T13:39:10;10.80;99.90
54264;DHT22;40178;53.042;6.406;2023-12-28T13:41:42;10.80;99.90
54264;DHT22;40178;53.042;6.406;2023-12-28T13:44:08;10.80;99.90
54264;DHT22;40178;53.042;6.406;2023-12-28T13:46:38;10.80;99.90
54264;DHT22;40178;53.042;6.406;2023-12-28T13:49:04;10.80;99.90
54264;DHT22;40178;53.042;6.406;2023-12-28T13:51:30;10.90;99.90
54264;DHT22;40178;53.042;6.406;2023-12-28T13:53:56;10.70;99.90
54264;DHT22;40178;53.042;6.406;2023-12-28T13:56:22;10.70;99.90
54264;DHT22;40178;53.042;6.406;2023-12-28T13:58:47;10.70;99.90
54264;DHT22;40178;53.042;6.406;2023-12-28T14:01:13;10.60;99.90
54264;DHT22;40178;53.042;6.406;2023-12-28T14:03:39;10.60;99.90
54264;DHT22;40178;53.042;6.406;2023-12-28T14:06:05;10.60;99.90
54264;DHT22;40178;53.042;6.406;2023-12-28T14:08:31;10.60;99.90
54264;DHT22;40178;53.042;6.406;2023-12-28T14:10:56;10.60;99.90
54264;DHT22;40178;53.042;6.406;2023-12-28T14:13:22;10.60;99.90
54264;DHT22;40178;53.042;6.406;2023-12-28T14:15:48;10.60;99.90
54264;DHT22;40178;53.042;6.406;2023-12-28T14:18:14;10.60;99.90
54264;DHT22;40178;53.042;6.406;2023-12-28T14:20:39;10.60;99.90
54264;DHT22;40178;53.042;6.406;2023-12-28T14:23:05;10.60;99.90
54264;DHT22;40178;53.042;6.406;2023-12-28T14:25:31;10.60;99.90
54264;DHT22;40178;53.042;6.406;2023-12-28T14:27:57;10.40;99.90
54264;DHT22;40178;53.042;6.406;2023-12-28T14:30:23;10.20;99.90
54264;DHT22;40178;53.042;6.406;2023-12-28T14:32:52;10.10;99.90
54264;DHT22;40178;53.042;6.406;2023-12-28T14:35:18;9.90;99.90
54264;DHT22;40178;53.042;6.406;2023-12-28T14:37:44;9.80;99.90
54264;DHT22;40178;53.042;6.406;2023-12-28T14:40:11;9.70;99.90
54264;DHT22;40178;53.042;6.406;2023-12-28T14:42:39;9.60;99.90
54264;DHT22;40178;53.042;6.406;2023-12-28T14:45:05;9.80;99.90
54264;DHT22;40178;53.042;6.406;2023-12-28T14:47:33;9.60;99.90
54264;DHT22;40178;53.042;6.406;2023-12-28T14:49:58;9.60;99.90
54264;DHT22;40178;53.042;6.406;2023-12-28T14:52:25;9.50;99.90
54264;DHT22;40178;53.042;6.406;2023-12-28T14:54:50;9.50;99.90
54264;DHT22;40178;53.042;6.406;2023-12-28T14:57:17;9.40;99.90
54264;DHT22;40178;53.042;6.406;2023-12-28T14:59:42;9.40;99.90
54264;DHT22;40178;53.042;6.406;2023-12-28T15:02:08;9.40;99.90
54264;DHT22;40178;53.042;6.406;2023-12-28T15:04:33;9.40;99.90
54264;DHT22;40178;53.042;6.406;2023-12-28T15:07:00;9.30;99.90
54264;DHT22;40178;53.042;6.406;2023-12-28T15:09:25;9.40;99.90
54264;DHT22;40178;53.042;6.406;2023-12-28T15:11:51;9.40;99.90
54264;DHT22;40178;53.042;6.406;2023-12-28T15:14:17;9.50;99.90
54264;DHT22;40178;53.042;6.406;2023-12-28T15:16:43;9.60;99.90
54264;DHT22;40178;53.042;6.406;2023-12-28T15:19:09;9.60;99.90
54264;DHT22;40178;53.042;6.406;2023-12-28T15:21:36;9.80;99.90
54264;DHT22;40178;53.042;6.406;2023-12-28T15:24:02;9.80;99.90
54264;DHT22;40178;53.042;6.406;2023-12-28T15:26:29;9.80;99.90
54264;DHT22;40178;53.042;6.406;2023-12-28T15:28:54;9.90;99.90
54264;DHT22;40178;53.042;6.406;2023-12-28T15:31:20;9.90;99.90
54264;DHT22;40178;53.042;6.406;2023-12-28T15:33:46;10.00;99.90
54264;DHT22;40178;53.042;6.406;2023-12-28T15:36:11;10.10;99.90
54264;DHT22;40178;53.042;6.406;2023-12-28T15:38:37;10.10;99.90